Portada
METAR-TAF:

METAR-TAF

Aeroports :

Medina, Aràbia Saudita

latitud: 24-33N, longitud: 039-42E, altitud: 654 m

Observació

L'informe es va fer fa 30 minuts, a les 07:00 UTC
Vent 4 kt del Oest/Nord-Oest
Temperatura 36°C
Humitat 10%
Pressió 1015 hPa
Visibilitat 10 km o més
sense núvols per sota de 1500 mi sense presència de cumulonimbus.

METAR: OEMA 270700Z 29004KT CAVOK 36/M01 Q1015 NOSIG

Hora: 10:30 (07:30 UTC)

Pronòstic

L'informe es va fer fa 8 hores i 30 minuts, a les 23:00 UTC
Pronòstic vàlid del 27 a les 00 UTC al 28 a les 06 UTC
Vent 3 kt amb direcció variable
Visibilitat: 7000 m
Escasses núvols a una alçada de 4500 ft
Evolucionant progressivament
l' 27 a les 06 UTC al 27 a les 08 UTC
Vent 12 kt del Est/Sud-Est
Evolucionant progressivament
l' 27 a les 12 UTC al 27 a les 14 UTC
Vent 14 kt del Oest

TAF: OEMA 262300Z 2700/2806 VRB03KT 7000 FEW045 BECMG 2706/2708 12012KT BECMG 2712/2714 27014KT

Observacions i pronòstics meteorològics de més de 4000 aeroports (METAR i TAF).

Les estacions disponibles són els punts grocs i vermells al mapa.

Posi el ratolí al punt desitjat per veure el nom de l'estació.

Feu clic per veure les observacions i els pronòstics meteorològics.

Per canviar el mapa: feu clic els botons verds amb una creu de color negre per apropar; al botó verd amb un guió per allunyar la imatge; o en les fletxes verdes per a mapes adjacents.


METAR-TAF: